sensor_id;sensor_type;location;lat;lon;timestamp;P1;durP1;ratioP1;P2;durP2;ratioP2
64075;SDS011;50327;51.328;12.324;2023-04-24T00:01:05;6.65;;;1.73;;
64075;SDS011;50327;51.328;12.324;2023-04-24T00:03:32;1.90;;;1.20;;
64075;SDS011;50327;51.328;12.324;2023-04-24T00:05:57;3.03;;;1.40;;
64075;SDS011;50327;51.328;12.324;2023-04-24T00:08:23;5.30;;;1.40;;
64075;SDS011;50327;51.328;12.324;2023-04-24T00:10:49;5.28;;;1.60;;
64075;SDS011;50327;51.328;12.324;2023-04-24T00:13:14;2.75;;;1.60;;
64075;SDS011;50327;51.328;12.324;2023-04-24T00:15:39;3.05;;;1.55;;
64075;SDS011;50327;51.328;12.324;2023-04-24T00:18:05;2.58;;;1.55;;
64075;SDS011;50327;51.328;12.324;2023-04-24T00:20:30;3.47;;;1.48;;
64075;SDS011;50327;51.328;12.324;2023-04-24T00:22:57;5.85;;;1.77;;
64075;SDS011;50327;51.328;12.324;2023-04-24T00:25:22;2.72;;;1.40;;
64075;SDS011;50327;51.328;12.324;2023-04-24T00:27:47;4.75;;;1.70;;
64075;SDS011;50327;51.328;12.324;2023-04-24T00:30:13;3.85;;;1.70;;
64075;SDS011;50327;51.328;12.324;2023-04-24T00:32:38;6.57;;;1.70;;
64075;SDS011;50327;51.328;12.324;2023-04-24T00:35:03;2.10;;;1.40;;
64075;SDS011;50327;51.328;12.324;2023-04-24T00:37:29;2.97;;;1.63;;
64075;SDS011;50327;51.328;12.324;2023-04-24T00:39:54;2.40;;;1.40;;
64075;SDS011;50327;51.328;12.324;2023-04-24T00:42:20;2.63;;;1.42;;
64075;SDS011;50327;51.328;12.324;2023-04-24T00:44:45;6.85;;;1.70;;
64075;SDS011;50327;51.328;12.324;2023-04-24T00:47:11;3.28;;;1.63;;
64075;SDS011;50327;51.328;12.324;2023-04-24T00:49:37;10.18;;;1.90;;
64075;SDS011;50327;51.328;12.324;2023-04-24T00:52:02;3.97;;;1.60;;
64075;SDS011;50327;51.328;12.324;2023-04-24T00:54:32;3.30;;;1.90;;
64075;SDS011;50327;51.328;12.324;2023-04-24T00:56:57;3.35;;;1.90;;
64075;SDS011;50327;51.328;12.324;2023-04-24T00:59:22;3.10;;;1.60;;
64075;SDS011;50327;51.328;12.324;2023-04-24T01:01:48;6.50;;;2.38;;
64075;SDS011;50327;51.328;12.324;2023-04-24T01:04:13;2.60;;;1.42;;
64075;SDS011;50327;51.328;12.324;2023-04-24T01:06:39;7.38;;;1.80;;
64075;SDS011;50327;51.328;12.324;2023-04-24T01:09:05;2.28;;;1.40;;
64075;SDS011;50327;51.328;12.324;2023-04-24T01:11:30;2.33;;;1.20;;
64075;SDS011;50327;51.328;12.324;2023-04-24T01:13:56;4.57;;;1.73;;
64075;SDS011;50327;51.328;12.324;2023-04-24T01:16:21;2.92;;;1.35;;
64075;SDS011;50327;51.328;12.324;2023-04-24T01:18:47;2.65;;;1.30;;
64075;SDS011;50327;51.328;12.324;2023-04-24T01:21:15;1.35;;;1.00;;
64075;SDS011;50327;51.328;12.324;2023-04-24T01:23:43;2.35;;;1.00;;
64075;SDS011;50327;51.328;12.324;2023-04-24T01:26:09;1.20;;;0.95;;
64075;SDS011;50327;51.328;12.324;2023-04-24T01:28:34;2.15;;;1.00;;
64075;SDS011;50327;51.328;12.324;2023-04-24T01:30:59;2.35;;;1.35;;
64075;SDS011;50327;51.328;12.324;2023-04-24T01:33:25;1.63;;;1.02;;
64075;SDS011;50327;51.328;12.324;2023-04-24T01:35:50;3.38;;;1.10;;
64075;SDS011;50327;51.328;12.324;2023-04-24T01:38:15;2.20;;;0.98;;
64075;SDS011;50327;51.328;12.324;2023-04-24T01:40:41;3.67;;;1.30;;
64075;SDS011;50327;51.328;12.324;2023-04-24T01:43:06;1.73;;;0.90;;
64075;SDS011;50327;51.328;12.324;2023-04-24T01:45:31;2.90;;;1.05;;
64075;SDS011;50327;51.328;12.324;2023-04-24T01:47:57;2.15;;;1.20;;
64075;SDS011;50327;51.328;12.324;2023-04-24T01:50:22;1.95;;;0.90;;
64075;SDS011;50327;51.328;12.324;2023-04-24T01:52:47;7.90;;;1.40;;
64075;SDS011;50327;51.328;12.324;2023-04-24T01:55:12;2.70;;;1.10;;
64075;SDS011;50327;51.328;12.324;2023-04-24T01:57:38;1.05;;;0.90;;
64075;SDS011;50327;51.328;12.324;2023-04-24T02:00:03;1.30;;;0.93;;
64075;SDS011;50327;51.328;12.324;2023-04-24T02:02:29;5.90;;;1.15;;
64075;SDS011;50327;51.328;12.324;2023-04-24T02:04:55;2.47;;;1.10;;
64075;SDS011;50327;51.328;12.324;2023-04-24T02:07:20;8.27;;;1.75;;
64075;SDS011;50327;51.328;12.324;2023-04-24T02:09:45;2.78;;;1.10;;
64075;SDS011;50327;51.328;12.324;2023-04-24T02:12:10;1.55;;;1.00;;
64075;SDS011;50327;51.328;12.324;2023-04-24T02:14:36;2.25;;;1.10;;
64075;SDS011;50327;51.328;12.324;2023-04-24T02:17:01;1.13;;;0.90;;
64075;SDS011;50327;51.328;12.324;2023-04-24T02:19:26;2.28;;;1.00;;
64075;SDS011;50327;51.328;12.324;2023-04-24T02:21:51;1.65;;;1.02;;
64075;SDS011;50327;51.328;12.324;2023-04-24T02:24:17;3.60;;;1.20;;
64075;SDS011;50327;51.328;12.324;2023-04-24T02:26:42;1.95;;;1.20;;
64075;SDS011;50327;51.328;12.324;2023-04-24T02:29:07;3.10;;;1.40;;
64075;SDS011;50327;51.328;12.324;2023-04-24T02:31:33;3.33;;;1.52;;
64075;SDS011;50327;51.328;12.324;2023-04-24T02:33:58;5.13;;;1.38;;
64075;SDS011;50327;51.328;12.324;2023-04-24T02:36:24;2.40;;;1.30;;
64075;SDS011;50327;51.328;12.324;2023-04-24T02:38:49;4.47;;;1.70;;
64075;SDS011;50327;51.328;12.324;2023-04-24T02:41:14;3.00;;;1.50;;
64075;SDS011;50327;51.328;12.324;2023-04-24T02:43:39;3.25;;;1.38;;
64075;SDS011;50327;51.328;12.324;2023-04-24T02:46:05;2.47;;;1.35;;
64075;SDS011;50327;51.328;12.324;2023-04-24T02:48:30;3.10;;;1.42;;
64075;SDS011;50327;51.328;12.324;2023-04-24T02:50:55;2.42;;;1.23;;
64075;SDS011;50327;51.328;12.324;2023-04-24T02:53:20;2.72;;;1.38;;
64075;SDS011;50327;51.328;12.324;2023-04-24T02:55:46;2.28;;;1.30;;
64075;SDS011;50327;51.328;12.324;2023-04-24T02:58:11;3.58;;;1.40;;
64075;SDS011;50327;51.328;12.324;2023-04-24T03:00:38;4.57;;;1.60;;
64075;SDS011;50327;51.328;12.324;2023-04-24T03:03:03;2.58;;;1.40;;
64075;SDS011;50327;51.328;12.324;2023-04-24T03:05:28;1.60;;;1.20;;
64075;SDS011;50327;51.328;12.324;2023-04-24T03:07:55;2.67;;;1.67;;
64075;SDS011;50327;51.328;12.324;2023-04-24T03:10:20;1.85;;;1.30;;
64075;SDS011;50327;51.328;12.324;2023-04-24T03:12:47;6.40;;;1.70;;
64075;SDS011;50327;51.328;12.324;2023-04-24T03:15:12;4.75;;;1.67;;
64075;SDS011;50327;51.328;12.324;2023-04-24T03:17:38;2.70;;;1.30;;
64075;SDS011;50327;51.328;12.324;2023-04-24T03:20:03;2.53;;;1.30;;
64075;SDS011;50327;51.328;12.324;2023-04-24T03:22:30;2.15;;;1.30;;
64075;SDS011;50327;51.328;12.324;2023-04-24T03:24:57;3.13;;;1.27;;
64075;SDS011;50327;51.328;12.324;2023-04-24T03:27:22;4.28;;;1.35;;
64075;SDS011;50327;51.328;12.324;2023-04-24T03:29:47;2.13;;;1.30;;
64075;SDS011;50327;51.328;12.324;2023-04-24T03:32:13;8.88;;;1.50;;
64075;SDS011;50327;51.328;12.324;2023-04-24T03:34:38;1.70;;;1.20;;
64075;SDS011;50327;51.328;12.324;2023-04-24T03:37:03;2.30;;;1.20;;
64075;SDS011;50327;51.328;12.324;2023-04-24T03:39:28;3.85;;;1.60;;
64075;SDS011;50327;51.328;12.324;2023-04-24T03:41:53;1.88;;;1.40;;
64075;SDS011;50327;51.328;12.324;2023-04-24T03:44:19;3.00;;;1.42;;
64075;SDS011;50327;51.328;12.324;2023-04-24T03:46:44;3.17;;;1.30;;
64075;SDS011;50327;51.328;12.324;2023-04-24T03:49:09;2.75;;;1.33;;
64075;SDS011;50327;51.328;12.324;2023-04-24T03:51:34;2.42;;;1.40;;
64075;SDS011;50327;51.328;12.324;2023-04-24T03:54:00;2.70;;;1.38;;
64075;SDS011;50327;51.328;12.324;2023-04-24T03:56:25;2.25;;;1.33;;
64075;SDS011;50327;51.328;12.324;2023-04-24T03:58:50;2.42;;;1.40;;
64075;SDS011;50327;51.328;12.324;2023-04-24T04:01:16;2.22;;;1.20;;
64075;SDS011;50327;51.328;12.324;2023-04-24T04:03:41;7.20;;;1.40;;
64075;SDS011;50327;51.328;12.324;2023-04-24T04:06:06;3.40;;;1.50;;
64075;SDS011;50327;51.328;12.324;2023-04-24T04:08:31;2.47;;;1.25;;
64075;SDS011;50327;51.328;12.324;2023-04-24T04:10:57;2.70;;;1.15;;
64075;SDS011;50327;51.328;12.324;2023-04-24T04:13:22;3.22;;;1.55;;
64075;SDS011;50327;51.328;12.324;2023-04-24T04:15:47;1.83;;;1.20;;
64075;SDS011;50327;51.328;12.324;2023-04-24T04:18:12;3.72;;;1.98;;
64075;SDS011;50327;51.328;12.324;2023-04-24T04:20:38;2.85;;;1.33;;
64075;SDS011;50327;51.328;12.324;2023-04-24T04:23:03;3.40;;;1.30;;
64075;SDS011;50327;51.328;12.324;2023-04-24T04:25:28;7.05;;;1.70;;
64075;SDS011;50327;51.328;12.324;2023-04-24T04:27:54;3.38;;;1.20;;
64075;SDS011;50327;51.328;12.324;2023-04-24T04:30:19;2.80;;;1.30;;
64075;SDS011;50327;51.328;12.324;2023-04-24T04:32:45;6.00;;;1.30;;
64075;SDS011;50327;51.328;12.324;2023-04-24T04:35:11;2.67;;;1.45;;
64075;SDS011;50327;51.328;12.324;2023-04-24T04:37:36;2.13;;;1.30;;
64075;SDS011;50327;51.328;12.324;2023-04-24T04:40:02;3.80;;;1.23;;
64075;SDS011;50327;51.328;12.324;2023-04-24T04:42:31;2.15;;;1.35;;
64075;SDS011;50327;51.328;12.324;2023-04-24T04:44:57;6.18;;;1.67;;
64075;SDS011;50327;51.328;12.324;2023-04-24T04:47:22;3.95;;;1.50;;
64075;SDS011;50327;51.328;12.324;2023-04-24T04:49:48;5.90;;;1.20;;
64075;SDS011;50327;51.328;12.324;2023-04-24T04:52:13;3.72;;;1.50;;
64075;SDS011;50327;51.328;12.324;2023-04-24T04:54:38;8.75;;;1.77;;
64075;SDS011;50327;51.328;12.324;2023-04-24T04:57:04;5.40;;;1.63;;
64075;SDS011;50327;51.328;12.324;2023-04-24T04:59:30;7.35;;;1.55;;
64075;SDS011;50327;51.328;12.324;2023-04-24T05:01:55;2.53;;;1.45;;
64075;SDS011;50327;51.328;12.324;2023-04-24T05:04:20;5.15;;;1.48;;
64075;SDS011;50327;51.328;12.324;2023-04-24T05:06:45;10.25;;;1.73;;
64075;SDS011;50327;51.328;12.324;2023-04-24T05:09:12;6.18;;;1.30;;
64075;SDS011;50327;51.328;12.324;2023-04-24T05:11:37;4.13;;;1.50;;
64075;SDS011;50327;51.328;12.324;2023-04-24T05:14:02;5.38;;;1.20;;
64075;SDS011;50327;51.328;12.324;2023-04-24T05:16:27;2.45;;;1.35;;
64075;SDS011;50327;51.328;12.324;2023-04-24T05:18:53;3.45;;;1.30;;
64075;SDS011;50327;51.328;12.324;2023-04-24T05:21:18;5.03;;;1.88;;
64075;SDS011;50327;51.328;12.324;2023-04-24T05:23:43;2.08;;;1.10;;
64075;SDS011;50327;51.328;12.324;2023-04-24T05:26:08;8.70;;;1.67;;
64075;SDS011;50327;51.328;12.324;2023-04-24T05:28:34;2.17;;;1.10;;
64075;SDS011;50327;51.328;12.324;2023-04-24T05:31:01;3.47;;;1.40;;
64075;SDS011;50327;51.328;12.324;2023-04-24T05:33:27;2.13;;;1.20;;
64075;SDS011;50327;51.328;12.324;2023-04-24T05:35:52;3.10;;;1.30;;
64075;SDS011;50327;51.328;12.324;2023-04-24T05:38:17;3.38;;;1.48;;
64075;SDS011;50327;51.328;12.324;2023-04-24T05:40:44;4.30;;;1.30;;
64075;SDS011;50327;51.328;12.324;2023-04-24T05:43:09;4.40;;;1.60;;
64075;SDS011;50327;51.328;12.324;2023-04-24T05:45:34;8.07;;;1.50;;
64075;SDS011;50327;51.328;12.324;2023-04-24T05:48:01;3.83;;;1.70;;
64075;SDS011;50327;51.328;12.324;2023-04-24T05:50:26;6.13;;;1.60;;
64075;SDS011;50327;51.328;12.324;2023-04-24T05:52:51;2.17;;;1.20;;
64075;SDS011;50327;51.328;12.324;2023-04-24T05:55:17;3.25;;;1.40;;
64075;SDS011;50327;51.328;12.324;2023-04-24T05:57:42;6.88;;;1.55;;
64075;SDS011;50327;51.328;12.324;2023-04-24T06:00:07;3.42;;;1.45;;
64075;SDS011;50327;51.328;12.324;2023-04-24T06:02:33;2.33;;;1.25;;
64075;SDS011;50327;51.328;12.324;2023-04-24T06:04:58;2.58;;;1.23;;
64075;SDS011;50327;51.328;12.324;2023-04-24T06:07:24;1.58;;;0.90;;
64075;SDS011;50327;51.328;12.324;2023-04-24T06:09:51;2.17;;;1.23;;
64075;SDS011;50327;51.328;12.324;2023-04-24T06:12:17;2.33;;;1.30;;
64075;SDS011;50327;51.328;12.324;2023-04-24T06:14:42;2.38;;;1.20;;
64075;SDS011;50327;51.328;12.324;2023-04-24T06:17:07;2.92;;;1.08;;
64075;SDS011;50327;51.328;12.324;2023-04-24T06:19:32;3.58;;;1.30;;
64075;SDS011;50327;51.328;12.324;2023-04-24T06:21:58;1.50;;;1.17;;
64075;SDS011;50327;51.328;12.324;2023-04-24T06:24:26;4.13;;;1.83;;
64075;SDS011;50327;51.328;12.324;2023-04-24T06:26:52;7.65;;;1.73;;
64075;SDS011;50327;51.328;12.324;2023-04-24T06:29:17;2.47;;;1.20;;
64075;SDS011;50327;51.328;12.324;2023-04-24T06:31:42;1.67;;;1.17;;
64075;SDS011;50327;51.328;12.324;2023-04-24T06:34:07;9.35;;;1.70;;
64075;SDS011;50327;51.328;12.324;2023-04-24T06:36:33;5.53;;;1.23;;
64075;SDS011;50327;51.328;12.324;2023-04-24T06:39:00;6.00;;;1.58;;
64075;SDS011;50327;51.328;12.324;2023-04-24T06:41:26;3.53;;;1.33;;
64075;SDS011;50327;51.328;12.324;2023-04-24T06:43:51;4.88;;;1.70;;
64075;SDS011;50327;51.328;12.324;2023-04-24T06:46:16;1.98;;;1.27;;
64075;SDS011;50327;51.328;12.324;2023-04-24T06:48:41;4.15;;;1.30;;
64075;SDS011;50327;51.328;12.324;2023-04-24T06:51:07;3.35;;;1.10;;
64075;SDS011;50327;51.328;12.324;2023-04-24T06:53:32;2.20;;;1.08;;
64075;SDS011;50327;51.328;12.324;2023-04-24T06:55:58;4.20;;;1.45;;
64075;SDS011;50327;51.328;12.324;2023-04-24T06:58:24;2.28;;;1.25;;
64075;SDS011;50327;51.328;12.324;2023-04-24T07:00:49;4.00;;;1.20;;
64075;SDS011;50327;51.328;12.324;2023-04-24T07:03:15;4.35;;;1.48;;
64075;SDS011;50327;51.328;12.324;2023-04-24T07:05:40;3.40;;;1.35;;
64075;SDS011;50327;51.328;12.324;2023-04-24T07:08:06;4.97;;;1.33;;
64075;SDS011;50327;51.328;12.324;2023-04-24T07:10:32;2.50;;;1.30;;
64075;SDS011;50327;51.328;12.324;2023-04-24T07:13:00;2.05;;;1.15;;
64075;SDS011;50327;51.328;12.324;2023-04-24T07:15:26;6.35;;;1.38;;
64075;SDS011;50327;51.328;12.324;2023-04-24T07:17:51;5.63;;;1.55;;
64075;SDS011;50327;51.328;12.324;2023-04-24T07:20:16;7.07;;;1.20;;
64075;SDS011;50327;51.328;12.324;2023-04-24T07:22:43;3.95;;;1.23;;
64075;SDS011;50327;51.328;12.324;2023-04-24T07:25:08;3.78;;;1.20;;
64075;SDS011;50327;51.328;12.324;2023-04-24T07:27:34;3.70;;;1.30;;
64075;SDS011;50327;51.328;12.324;2023-04-24T07:30:00;3.97;;;1.23;;
64075;SDS011;50327;51.328;12.324;2023-04-24T07:32:26;9.65;;;1.15;;
64075;SDS011;50327;51.328;12.324;2023-04-24T07:34:51;4.65;;;1.00;;
64075;SDS011;50327;51.328;12.324;2023-04-24T07:37:16;5.80;;;1.20;;
64075;SDS011;50327;51.328;12.324;2023-04-24T07:39:41;5.70;;;1.42;;
64075;SDS011;50327;51.328;12.324;2023-04-24T07:42:07;3.53;;;1.10;;
64075;SDS011;50327;51.328;12.324;2023-04-24T07:44:32;3.28;;;1.30;;
64075;SDS011;50327;51.328;12.324;2023-04-24T07:46:57;5.22;;;1.10;;
64075;SDS011;50327;51.328;12.324;2023-04-24T07:49:23;3.53;;;1.20;;
64075;SDS011;50327;51.328;12.324;2023-04-24T07:51:48;2.28;;;0.90;;
64075;SDS011;50327;51.328;12.324;2023-04-24T07:54:14;2.03;;;0.90;;
64075;SDS011;50327;51.328;12.324;2023-04-24T07:56:40;4.93;;;0.80;;
64075;SDS011;50327;51.328;12.324;2023-04-24T07:59:06;4.22;;;1.00;;
64075;SDS011;50327;51.328;12.324;2023-04-24T08:01:32;2.45;;;0.80;;
64075;SDS011;50327;51.328;12.324;2023-04-24T08:03:57;0.95;;;0.70;;
64075;SDS011;50327;51.328;12.324;2023-04-24T08:06:22;4.82;;;1.10;;
64075;SDS011;50327;51.328;12.324;2023-04-24T08:08:48;1.73;;;0.88;;
64075;SDS011;50327;51.328;12.324;2023-04-24T08:11:13;1.52;;;0.60;;
64075;SDS011;50327;51.328;12.324;2023-04-24T08:13:38;2.25;;;0.82;;
64075;SDS011;50327;51.328;12.324;2023-04-24T08:16:03;2.58;;;0.82;;
64075;SDS011;50327;51.328;12.324;2023-04-24T08:18:29;4.57;;;1.05;;
64075;SDS011;50327;51.328;12.324;2023-04-24T08:20:54;4.22;;;1.02;;
64075;SDS011;50327;51.328;12.324;2023-04-24T08:23:19;2.17;;;0.80;;
64075;SDS011;50327;51.328;12.324;2023-04-24T08:25:44;2.90;;;0.90;;
64075;SDS011;50327;51.328;12.324;2023-04-24T08:28:10;0.52;;;0.50;;
64075;SDS011;50327;51.328;12.324;2023-04-24T08:30:36;2.92;;;0.93;;
64075;SDS011;50327;51.328;12.324;2023-04-24T08:33:01;1.95;;;0.75;;
64075;SDS011;50327;51.328;12.324;2023-04-24T08:35:27;2.15;;;0.85;;
64075;SDS011;50327;51.328;12.324;2023-04-24T08:37:52;3.10;;;0.55;;
64075;SDS011;50327;51.328;12.324;2023-04-24T08:40:18;1.98;;;1.02;;
64075;SDS011;50327;51.328;12.324;2023-04-24T08:42:46;2.05;;;0.98;;
64075;SDS011;50327;51.328;12.324;2023-04-24T08:45:12;2.53;;;0.93;;
64075;SDS011;50327;51.328;12.324;2023-04-24T08:47:38;4.53;;;0.80;;
64075;SDS011;50327;51.328;12.324;2023-04-24T08:50:04;2.40;;;1.05;;
64075;SDS011;50327;51.328;12.324;2023-04-24T08:52:31;1.60;;;0.57;;
64075;SDS011;50327;51.328;12.324;2023-04-24T08:54:57;1.80;;;0.90;;
64075;SDS011;50327;51.328;12.324;2023-04-24T08:57:22;2.00;;;0.93;;
64075;SDS011;50327;51.328;12.324;2023-04-24T08:59:47;1.30;;;0.65;;
64075;SDS011;50327;51.328;12.324;2023-04-24T09:02:13;2.22;;;0.70;;
64075;SDS011;50327;51.328;12.324;2023-04-24T09:04:39;1.27;;;0.70;;
64075;SDS011;50327;51.328;12.324;2023-04-24T09:07:05;3.28;;;0.63;;
64075;SDS011;50327;51.328;12.324;2023-04-24T09:09:31;0.73;;;0.65;;
64075;SDS011;50327;51.328;12.324;2023-04-24T09:11:57;1.85;;;0.80;;
64075;SDS011;50327;51.328;12.324;2023-04-24T09:14:23;1.45;;;0.80;;
64075;SDS011;50327;51.328;12.324;2023-04-24T09:16:48;1.42;;;0.70;;
64075;SDS011;50327;51.328;12.324;2023-04-24T09:19:14;3.97;;;1.00;;
64075;SDS011;50327;51.328;12.324;2023-04-24T09:21:39;1.33;;;0.73;;
64075;SDS011;50327;51.328;12.324;2023-04-24T09:24:07;1.13;;;0.73;;
64075;SDS011;50327;51.328;12.324;2023-04-24T09:26:35;1.80;;;0.80;;
64075;SDS011;50327;51.328;12.324;2023-04-24T09:29:00;1.75;;;0.80;;
64075;SDS011;50327;51.328;12.324;2023-04-24T09:31:29;2.63;;;0.60;;
64075;SDS011;50327;51.328;12.324;2023-04-24T09:36:26;1.48;;;0.80;;
64075;SDS011;50327;51.328;12.324;2023-04-24T09:38:53;1.55;;;0.68;;
64075;SDS011;50327;51.328;12.324;2023-04-24T09:41:18;1.15;;;0.70;;
64075;SDS011;50327;51.328;12.324;2023-04-24T09:43:44;2.35;;;0.90;;
64075;SDS011;50327;51.328;12.324;2023-04-24T09:46:09;1.75;;;0.80;;
64075;SDS011;50327;51.328;12.324;2023-04-24T09:48:37;3.50;;;0.88;;
64075;SDS011;50327;51.328;12.324;2023-04-24T09:51:03;2.17;;;0.65;;
64075;SDS011;50327;51.328;12.324;2023-04-24T09:53:29;0.90;;;0.60;;
64075;SDS011;50327;51.328;12.324;2023-04-24T09:55:55;6.82;;;0.80;;
64075;SDS011;50327;51.328;12.324;2023-04-24T09:58:26;1.77;;;0.75;;
64075;SDS011;50327;51.328;12.324;2023-04-24T10:00:55;1.30;;;0.70;;
64075;SDS011;50327;51.328;12.324;2023-04-24T10:03:20;1.50;;;0.80;;
64075;SDS011;50327;51.328;12.324;2023-04-24T10:05:46;2.03;;;0.60;;
64075;SDS011;50327;51.328;12.324;2023-04-24T10:08:11;2.67;;;0.85;;
64075;SDS011;50327;51.328;12.324;2023-04-24T10:10:43;2.20;;;0.80;;
64075;SDS011;50327;51.328;12.324;2023-04-24T10:13:09;6.22;;;0.70;;
64075;SDS011;50327;51.328;12.324;2023-04-24T10:15:35;6.25;;;0.80;;
64075;SDS011;50327;51.328;12.324;2023-04-24T10:18:00;1.63;;;0.70;;
64075;SDS011;50327;51.328;12.324;2023-04-24T10:20:26;0.68;;;0.60;;
64075;SDS011;50327;51.328;12.324;2023-04-24T10:22:53;1.77;;;0.98;;
64075;SDS011;50327;51.328;12.324;2023-04-24T10:25:22;3.92;;;1.00;;
64075;SDS011;50327;51.328;12.324;2023-04-24T10:27:48;8.80;;;1.02;;
64075;SDS011;50327;51.328;12.324;2023-04-24T10:30:14;1.60;;;0.73;;
64075;SDS011;50327;51.328;12.324;2023-04-24T10:32:39;6.47;;;1.05;;
64075;SDS011;50327;51.328;12.324;2023-04-24T10:35:08;0.80;;;0.50;;
64075;SDS011;50327;51.328;12.324;2023-04-24T10:39:59;7.85;;;1.02;;
64075;SDS011;50327;51.328;12.324;2023-04-24T10:42:26;2.30;;;0.68;;
64075;SDS011;50327;51.328;12.324;2023-04-24T10:44:52;1.73;;;0.90;;
64075;SDS011;50327;51.328;12.324;2023-04-24T10:47:17;0.90;;;0.70;;
64075;SDS011;50327;51.328;12.324;2023-04-24T10:49:42;3.15;;;0.80;;
64075;SDS011;50327;51.328;12.324;2023-04-24T10:52:08;2.20;;;0.90;;
64075;SDS011;50327;51.328;12.324;2023-04-24T10:54:34;0.88;;;0.70;;
64075;SDS011;50327;51.328;12.324;2023-04-24T10:59:47;1.35;;;0.98;;
64075;SDS011;50327;51.328;12.324;2023-04-24T11:02:16;1.02;;;0.70;;
64075;SDS011;50327;51.328;12.324;2023-04-24T11:04:42;0.90;;;0.80;;
64075;SDS011;50327;51.328;12.324;2023-04-24T11:07:08;1.30;;;0.88;;
64075;SDS011;50327;51.328;12.324;2023-04-24T11:09:34;0.95;;;0.77;;
64075;SDS011;50327;51.328;12.324;2023-04-24T11:12:08;0.82;;;0.68;;
64075;SDS011;50327;51.328;12.324;2023-04-24T11:17:33;7.32;;;1.13;;
64075;SDS011;50327;51.328;12.324;2023-04-24T11:20:05;2.63;;;0.82;;
64075;SDS011;50327;51.328;12.324;2023-04-24T11:22:38;2.03;;;0.80;;
64075;SDS011;50327;51.328;12.324;2023-04-24T11:25:04;3.45;;;0.90;;
64075;SDS011;50327;51.328;12.324;2023-04-24T11:27:31;6.25;;;1.00;;
64075;SDS011;50327;51.328;12.324;2023-04-24T11:34:58;2.90;;;1.10;;
64075;SDS011;50327;51.328;12.324;2023-04-24T11:37:24;3.05;;;1.00;;
64075;SDS011;50327;51.328;12.324;2023-04-24T11:39:52;0.95;;;0.70;;
64075;SDS011;50327;51.328;12.324;2023-04-24T11:42:17;1.38;;;0.80;;
64075;SDS011;50327;51.328;12.324;2023-04-24T11:44:43;2.63;;;1.23;;
64075;SDS011;50327;51.328;12.324;2023-04-24T11:47:08;2.60;;;0.80;;
64075;SDS011;50327;51.328;12.324;2023-04-24T11:49:33;0.80;;;0.70;;
64075;SDS011;50327;51.328;12.324;2023-04-24T11:52:01;2.05;;;0.90;;
64075;SDS011;50327;51.328;12.324;2023-04-24T11:54:26;1.10;;;0.88;;
64075;SDS011;50327;51.328;12.324;2023-04-24T11:56:51;2.75;;;1.38;;
64075;SDS011;50327;51.328;12.324;2023-04-24T11:59:17;3.17;;;0.93;;
64075;SDS011;50327;51.328;12.324;2023-04-24T12:01:43;1.90;;;0.82;;
64075;SDS011;50327;51.328;12.324;2023-04-24T12:04:08;1.58;;;0.80;;
64075;SDS011;50327;51.328;12.324;2023-04-24T12:06:33;7.45;;;1.00;;
64075;SDS011;50327;51.328;12.324;2023-04-24T12:08:58;4.72;;;0.90;;
64075;SDS011;50327;51.328;12.324;2023-04-24T12:11:24;1.98;;;0.75;;
64075;SDS011;50327;51.328;12.324;2023-04-24T12:13:50;3.00;;;0.80;;
64075;SDS011;50327;51.328;12.324;2023-04-24T12:16:15;1.67;;;0.95;;
64075;SDS011;50327;51.328;12.324;2023-04-24T12:18:44;3.63;;;1.08;;
64075;SDS011;50327;51.328;12.324;2023-04-24T12:21:17;3.55;;;1.02;;
64075;SDS011;50327;51.328;12.324;2023-04-24T12:23:43;3.05;;;1.02;;
64075;SDS011;50327;51.328;12.324;2023-04-24T12:26:08;2.90;;;1.15;;
64075;SDS011;50327;51.328;12.324;2023-04-24T12:28:34;1.45;;;0.90;;
64075;SDS011;50327;51.328;12.324;2023-04-24T12:31:00;1.25;;;0.80;;
64075;SDS011;50327;51.328;12.324;2023-04-24T12:33:25;3.60;;;1.15;;
64075;SDS011;50327;51.328;12.324;2023-04-24T12:35:51;2.65;;;1.00;;
64075;SDS011;50327;51.328;12.324;2023-04-24T12:38:21;1.33;;;0.80;;
64075;SDS011;50327;51.328;12.324;2023-04-24T12:40:46;2.75;;;1.27;;
64075;SDS011;50327;51.328;12.324;2023-04-24T12:45:40;1.50;;;1.00;;
64075;SDS011;50327;51.328;12.324;2023-04-24T12:48:05;3.10;;;1.02;;
64075;SDS011;50327;51.328;12.324;2023-04-24T12:50:30;3.03;;;1.52;;
64075;SDS011;50327;51.328;12.324;2023-04-24T12:52:56;8.65;;;1.45;;
64075;SDS011;50327;51.328;12.324;2023-04-24T12:55:21;7.32;;;1.30;;
64075;SDS011;50327;51.328;12.324;2023-04-24T12:57:46;5.15;;;1.08;;
64075;SDS011;50327;51.328;12.324;2023-04-24T13:00:11;1.83;;;0.98;;
64075;SDS011;50327;51.328;12.324;2023-04-24T13:02:37;2.10;;;1.02;;
64075;SDS011;50327;51.328;12.324;2023-04-24T13:05:03;1.58;;;0.80;;
64075;SDS011;50327;51.328;12.324;2023-04-24T13:07:28;1.92;;;0.95;;
64075;SDS011;50327;51.328;12.324;2023-04-24T13:09:54;1.52;;;1.00;;
64075;SDS011;50327;51.328;12.324;2023-04-24T13:12:20;1.02;;;0.82;;
64075;SDS011;50327;51.328;12.324;2023-04-24T13:14:45;3.70;;;1.10;;
64075;SDS011;50327;51.328;12.324;2023-04-24T13:17:10;4.60;;;1.20;;
64075;SDS011;50327;51.328;12.324;2023-04-24T13:19:37;3.00;;;1.10;;
64075;SDS011;50327;51.328;12.324;2023-04-24T13:22:02;2.67;;;0.82;;
64075;SDS011;50327;51.328;12.324;2023-04-24T13:24:28;6.90;;;1.38;;
64075;SDS011;50327;51.328;12.324;2023-04-24T13:26:53;3.75;;;1.20;;
64075;SDS011;50327;51.328;12.324;2023-04-24T13:29:18;1.77;;;1.10;;
64075;SDS011;50327;51.328;12.324;2023-04-24T13:31:44;1.77;;;0.90;;
64075;SDS011;50327;51.328;12.324;2023-04-24T13:34:09;10.52;;;1.15;;
64075;SDS011;50327;51.328;12.324;2023-04-24T13:36:34;2.47;;;1.20;;
64075;SDS011;50327;51.328;12.324;2023-04-24T13:39:00;6.65;;;1.17;;
64075;SDS011;50327;51.328;12.324;2023-04-24T13:41:25;3.58;;;1.10;;
64075;SDS011;50327;51.328;12.324;2023-04-24T13:43:50;5.22;;;1.17;;
64075;SDS011;50327;51.328;12.324;2023-04-24T13:46:16;3.35;;;1.00;;
64075;SDS011;50327;51.328;12.324;2023-04-24T13:48:41;3.47;;;1.00;;
64075;SDS011;50327;51.328;12.324;2023-04-24T13:51:06;4.43;;;1.73;;
64075;SDS011;50327;51.328;12.324;2023-04-24T13:53:32;0.95;;;0.85;;
64075;SDS011;50327;51.328;12.324;2023-04-24T13:55:57;3.72;;;1.50;;
64075;SDS011;50327;51.328;12.324;2023-04-24T13:58:23;1.27;;;0.70;;
64075;SDS011;50327;51.328;12.324;2023-04-24T14:00:48;1.23;;;0.85;;
64075;SDS011;50327;51.328;12.324;2023-04-24T14:03:13;0.90;;;0.68;;
64075;SDS011;50327;51.328;12.324;2023-04-24T14:05:38;13.65;;;1.00;;
64075;SDS011;50327;51.328;12.324;2023-04-24T14:08:04;2.50;;;0.65;;
64075;SDS011;50327;51.328;12.324;2023-04-24T14:10:29;1.30;;;0.60;;
64075;SDS011;50327;51.328;12.324;2023-04-24T14:12:54;2.17;;;0.88;;
64075;SDS011;50327;51.328;12.324;2023-04-24T14:15:20;1.65;;;0.75;;
64075;SDS011;50327;51.328;12.324;2023-04-24T14:17:45;0.70;;;0.70;;
64075;SDS011;50327;51.328;12.324;2023-04-24T14:20:11;0.98;;;0.70;;
64075;SDS011;50327;51.328;12.324;2023-04-24T14:22:37;2.63;;;0.50;;
64075;SDS011;50327;51.328;12.324;2023-04-24T14:25:02;11.02;;;1.10;;
64075;SDS011;50327;51.328;12.324;2023-04-24T14:27:28;2.08;;;0.70;;
64075;SDS011;50327;51.328;12.324;2023-04-24T14:29:53;0.70;;;0.60;;
64075;SDS011;50327;51.328;12.324;2023-04-24T14:32:18;7.55;;;0.65;;
64075;SDS011;50327;51.328;12.324;2023-04-24T14:34:44;4.88;;;0.80;;
64075;SDS011;50327;51.328;12.324;2023-04-24T14:37:09;5.43;;;0.70;;
64075;SDS011;50327;51.328;12.324;2023-04-24T14:39:34;13.23;;;0.82;;
64075;SDS011;50327;51.328;12.324;2023-04-24T14:42:00;1.02;;;0.73;;